sensor_id;sensor_type;location;lat;lon;timestamp;P1;durP1;ratioP1;P2;durP2;ratioP2
24799;SDS011;12897;50.812;4.430;2022-07-12T00:00:19;6.08;;;5.22;;
24799;SDS011;12897;50.812;4.430;2022-07-12T00:02:47;7.60;;;5.83;;
24799;SDS011;12897;50.812;4.430;2022-07-12T00:05:15;8.43;;;5.85;;
24799;SDS011;12897;50.812;4.430;2022-07-12T00:07:42;8.48;;;5.90;;
24799;SDS011;12897;50.812;4.430;2022-07-12T00:10:10;8.35;;;6.42;;
24799;SDS011;12897;50.812;4.430;2022-07-12T00:12:37;8.03;;;5.50;;
24799;SDS011;12897;50.812;4.430;2022-07-12T00:15:06;6.80;;;5.60;;
24799;SDS011;12897;50.812;4.430;2022-07-12T00:17:35;10.95;;;6.45;;
24799;SDS011;12897;50.812;4.430;2022-07-12T00:22:31;7.40;;;5.35;;
24799;SDS011;12897;50.812;4.430;2022-07-12T00:24:59;8.58;;;5.85;;
24799;SDS011;12897;50.812;4.430;2022-07-12T00:27:26;6.72;;;5.53;;
24799;SDS011;12897;50.812;4.430;2022-07-12T00:29:54;6.50;;;5.67;;
24799;SDS011;12897;50.812;4.430;2022-07-12T00:32:22;7.30;;;5.60;;
24799;SDS011;12897;50.812;4.430;2022-07-12T00:37:36;9.43;;;6.08;;
24799;SDS011;12897;50.812;4.430;2022-07-12T00:40:05;12.80;;;5.47;;
24799;SDS011;12897;50.812;4.430;2022-07-12T00:42:34;6.33;;;5.47;;
24799;SDS011;12897;50.812;4.430;2022-07-12T00:45:05;6.37;;;5.42;;
24799;SDS011;12897;50.812;4.430;2022-07-12T00:47:34;5.75;;;4.25;;
24799;SDS011;12897;50.812;4.430;2022-07-12T00:50:09;7.75;;;5.33;;
24799;SDS011;12897;50.812;4.430;2022-07-12T00:52:38;8.35;;;5.67;;
24799;SDS011;12897;50.812;4.430;2022-07-12T00:55:07;12.93;;;5.05;;
24799;SDS011;12897;50.812;4.430;2022-07-12T00:57:36;5.35;;;4.50;;
24799;SDS011;12897;50.812;4.430;2022-07-12T01:00:06;6.33;;;4.53;;
24799;SDS011;12897;50.812;4.430;2022-07-12T01:02:35;6.22;;;4.70;;
24799;SDS011;12897;50.812;4.430;2022-07-12T01:05:04;9.63;;;4.78;;
24799;SDS011;12897;50.812;4.430;2022-07-12T01:07:33;7.50;;;4.92;;
24799;SDS011;12897;50.812;4.430;2022-07-12T01:10:02;8.13;;;5.20;;
24799;SDS011;12897;50.812;4.430;2022-07-12T01:12:30;6.10;;;5.00;;
24799;SDS011;12897;50.812;4.430;2022-07-12T01:14:58;7.35;;;4.45;;
24799;SDS011;12897;50.812;4.430;2022-07-12T01:17:27;5.47;;;4.95;;
24799;SDS011;12897;50.812;4.430;2022-07-12T01:19:55;8.23;;;4.83;;
24799;SDS011;12897;50.812;4.430;2022-07-12T01:22:29;8.05;;;5.15;;
24799;SDS011;12897;50.812;4.430;2022-07-12T01:25:00;6.85;;;5.05;;
24799;SDS011;12897;50.812;4.430;2022-07-12T01:32:44;6.85;;;5.05;;
24799;SDS011;12897;50.812;4.430;2022-07-12T01:35:11;6.37;;;4.85;;
24799;SDS011;12897;50.812;4.430;2022-07-12T01:37:44;11.80;;;4.62;;
24799;SDS011;12897;50.812;4.430;2022-07-12T01:40:09;8.43;;;5.22;;
24799;SDS011;12897;50.812;4.430;2022-07-12T01:45:06;7.55;;;4.65;;
24799;SDS011;12897;50.812;4.430;2022-07-12T01:47:35;8.65;;;4.97;;
24799;SDS011;12897;50.812;4.430;2022-07-12T01:50:12;6.22;;;4.78;;
24799;SDS011;12897;50.812;4.430;2022-07-12T01:52:36;7.37;;;4.97;;
24799;SDS011;12897;50.812;4.430;2022-07-12T01:55:05;7.47;;;5.00;;
24799;SDS011;12897;50.812;4.430;2022-07-12T01:57:33;7.75;;;5.37;;
24799;SDS011;12897;50.812;4.430;2022-07-12T02:00:05;7.08;;;5.47;;
24799;SDS011;12897;50.812;4.430;2022-07-12T02:02:34;7.60;;;5.25;;
24799;SDS011;12897;50.812;4.430;2022-07-12T02:05:02;8.98;;;5.55;;
24799;SDS011;12897;50.812;4.430;2022-07-12T02:07:31;6.20;;;4.92;;
24799;SDS011;12897;50.812;4.430;2022-07-12T02:09:59;10.35;;;5.37;;
24799;SDS011;12897;50.812;4.430;2022-07-12T02:12:26;6.97;;;4.87;;
24799;SDS011;12897;50.812;4.430;2022-07-12T02:14:54;8.28;;;5.33;;
24799;SDS011;12897;50.812;4.430;2022-07-12T02:17:21;6.55;;;5.28;;
24799;SDS011;12897;50.812;4.430;2022-07-12T02:19:49;7.37;;;5.58;;
24799;SDS011;12897;50.812;4.430;2022-07-12T02:22:17;6.17;;;5.58;;
24799;SDS011;12897;50.812;4.430;2022-07-12T02:24:44;5.42;;;4.35;;
24799;SDS011;12897;50.812;4.430;2022-07-12T02:27:12;7.10;;;4.72;;
24799;SDS011;12897;50.812;4.430;2022-07-12T02:29:40;7.92;;;5.40;;
24799;SDS011;12897;50.812;4.430;2022-07-12T02:32:07;7.03;;;5.00;;
24799;SDS011;12897;50.812;4.430;2022-07-12T02:34:35;13.62;;;5.78;;
24799;SDS011;12897;50.812;4.430;2022-07-12T02:37:03;6.05;;;4.85;;
24799;SDS011;12897;50.812;4.430;2022-07-12T02:39:30;7.72;;;4.50;;
24799;SDS011;12897;50.812;4.430;2022-07-12T02:41:58;8.80;;;4.83;;
24799;SDS011;12897;50.812;4.430;2022-07-12T02:44:25;7.80;;;4.72;;
24799;SDS011;12897;50.812;4.430;2022-07-12T02:46:53;6.97;;;4.60;;
24799;SDS011;12897;50.812;4.430;2022-07-12T02:49:20;7.08;;;4.67;;
24799;SDS011;12897;50.812;4.430;2022-07-12T02:51:48;8.53;;;4.87;;
24799;SDS011;12897;50.812;4.430;2022-07-12T02:54:15;6.22;;;5.10;;
24799;SDS011;12897;50.812;4.430;2022-07-12T02:56:43;6.03;;;4.67;;
24799;SDS011;12897;50.812;4.430;2022-07-12T02:59:10;6.85;;;4.80;;
24799;SDS011;12897;50.812;4.430;2022-07-12T03:01:38;8.88;;;4.67;;
24799;SDS011;12897;50.812;4.430;2022-07-12T03:04:05;7.78;;;5.05;;
24799;SDS011;12897;50.812;4.430;2022-07-12T03:06:33;6.58;;;4.60;;
24799;SDS011;12897;50.812;4.430;2022-07-12T03:09:01;6.75;;;4.47;;
24799;SDS011;12897;50.812;4.430;2022-07-12T03:11:28;7.55;;;5.05;;
24799;SDS011;12897;50.812;4.430;2022-07-12T03:13:56;6.15;;;4.90;;
24799;SDS011;12897;50.812;4.430;2022-07-12T03:16:23;6.65;;;4.85;;
24799;SDS011;12897;50.812;4.430;2022-07-12T03:18:51;8.33;;;5.40;;
24799;SDS011;12897;50.812;4.430;2022-07-12T03:21:18;11.50;;;5.35;;
24799;SDS011;12897;50.812;4.430;2022-07-12T03:23:46;8.75;;;5.22;;
24799;SDS011;12897;50.812;4.430;2022-07-12T03:26:15;8.05;;;4.83;;
24799;SDS011;12897;50.812;4.430;2022-07-12T03:28:43;10.65;;;5.10;;
24799;SDS011;12897;50.812;4.430;2022-07-12T03:31:11;7.58;;;4.80;;
24799;SDS011;12897;50.812;4.430;2022-07-12T03:33:38;8.08;;;5.08;;
24799;SDS011;12897;50.812;4.430;2022-07-12T03:36:07;12.55;;;6.22;;
24799;SDS011;12897;50.812;4.430;2022-07-12T03:38:34;11.93;;;5.92;;
24799;SDS011;12897;50.812;4.430;2022-07-12T03:41:05;7.33;;;5.22;;
24799;SDS011;12897;50.812;4.430;2022-07-12T03:43:33;7.15;;;5.72;;
24799;SDS011;12897;50.812;4.430;2022-07-12T03:46:00;10.95;;;6.00;;
24799;SDS011;12897;50.812;4.430;2022-07-12T03:48:28;11.20;;;5.72;;
24799;SDS011;12897;50.812;4.430;2022-07-12T03:50:55;9.28;;;5.58;;
24799;SDS011;12897;50.812;4.430;2022-07-12T03:53:23;8.20;;;5.97;;
24799;SDS011;12897;50.812;4.430;2022-07-12T03:55:50;8.83;;;5.62;;
24799;SDS011;12897;50.812;4.430;2022-07-12T03:58:18;9.53;;;5.97;;
24799;SDS011;12897;50.812;4.430;2022-07-12T04:00:45;11.78;;;5.70;;
24799;SDS011;12897;50.812;4.430;2022-07-12T04:03:13;6.70;;;5.45;;
24799;SDS011;12897;50.812;4.430;2022-07-12T04:05:41;7.75;;;5.15;;
24799;SDS011;12897;50.812;4.430;2022-07-12T04:08:09;8.70;;;5.35;;
24799;SDS011;12897;50.812;4.430;2022-07-12T04:10:38;7.20;;;5.83;;
24799;SDS011;12897;50.812;4.430;2022-07-12T04:13:06;9.13;;;5.62;;
24799;SDS011;12897;50.812;4.430;2022-07-12T04:15:33;8.13;;;5.22;;
24799;SDS011;12897;50.812;4.430;2022-07-12T04:18:06;8.70;;;5.30;;
24799;SDS011;12897;50.812;4.430;2022-07-12T04:20:31;9.85;;;5.78;;
24799;SDS011;12897;50.812;4.430;2022-07-12T04:22:58;8.38;;;5.35;;
24799;SDS011;12897;50.812;4.430;2022-07-12T04:25:26;15.03;;;6.03;;
24799;SDS011;12897;50.812;4.430;2022-07-12T04:27:54;7.15;;;4.92;;
24799;SDS011;12897;50.812;4.430;2022-07-12T04:30:21;8.63;;;5.70;;
24799;SDS011;12897;50.812;4.430;2022-07-12T04:32:49;12.73;;;5.97;;
24799;SDS011;12897;50.812;4.430;2022-07-12T04:35:16;7.15;;;5.28;;
24799;SDS011;12897;50.812;4.430;2022-07-12T04:37:44;9.00;;;5.85;;
24799;SDS011;12897;50.812;4.430;2022-07-12T04:40:12;8.73;;;5.58;;
24799;SDS011;12897;50.812;4.430;2022-07-12T04:42:39;11.55;;;6.95;;
24799;SDS011;12897;50.812;4.430;2022-07-12T04:45:07;14.68;;;6.45;;
24799;SDS011;12897;50.812;4.430;2022-07-12T04:47:35;9.20;;;5.92;;
24799;SDS011;12897;50.812;4.430;2022-07-12T04:50:06;8.18;;;6.08;;
24799;SDS011;12897;50.812;4.430;2022-07-12T04:52:34;8.13;;;6.20;;
24799;SDS011;12897;50.812;4.430;2022-07-12T04:55:03;11.38;;;6.03;;
24799;SDS011;12897;50.812;4.430;2022-07-12T04:57:32;7.70;;;5.87;;
24799;SDS011;12897;50.812;4.430;2022-07-12T05:00:00;10.08;;;5.62;;
24799;SDS011;12897;50.812;4.430;2022-07-12T05:02:27;13.25;;;5.90;;
24799;SDS011;12897;50.812;4.430;2022-07-12T05:04:55;6.95;;;5.58;;
24799;SDS011;12897;50.812;4.430;2022-07-12T05:07:22;8.88;;;5.65;;
24799;SDS011;12897;50.812;4.430;2022-07-12T05:09:50;10.40;;;5.87;;
24799;SDS011;12897;50.812;4.430;2022-07-12T05:12:18;9.88;;;6.37;;
24799;SDS011;12897;50.812;4.430;2022-07-12T05:14:48;11.03;;;7.08;;
24799;SDS011;12897;50.812;4.430;2022-07-12T05:17:16;9.85;;;7.00;;
24799;SDS011;12897;50.812;4.430;2022-07-12T05:19:44;10.82;;;6.40;;
24799;SDS011;12897;50.812;4.430;2022-07-12T05:22:11;6.90;;;5.85;;
24799;SDS011;12897;50.812;4.430;2022-07-12T05:24:39;9.35;;;6.12;;
24799;SDS011;12897;50.812;4.430;2022-07-12T05:27:06;14.40;;;6.67;;
24799;SDS011;12897;50.812;4.430;2022-07-12T05:29:35;12.78;;;5.87;;
24799;SDS011;12897;50.812;4.430;2022-07-12T05:32:03;11.20;;;5.45;;
24799;SDS011;12897;50.812;4.430;2022-07-12T05:34:31;14.10;;;5.95;;
24799;SDS011;12897;50.812;4.430;2022-07-12T05:36:58;8.38;;;5.72;;
24799;SDS011;12897;50.812;4.430;2022-07-12T05:39:26;7.05;;;5.10;;
24799;SDS011;12897;50.812;4.430;2022-07-12T05:41:53;8.10;;;5.12;;
24799;SDS011;12897;50.812;4.430;2022-07-12T05:44:21;6.80;;;5.75;;
24799;SDS011;12897;50.812;4.430;2022-07-12T05:46:49;8.40;;;5.20;;
24799;SDS011;12897;50.812;4.430;2022-07-12T05:49:17;9.93;;;6.00;;
24799;SDS011;12897;50.812;4.430;2022-07-12T05:51:45;8.00;;;5.90;;
24799;SDS011;12897;50.812;4.430;2022-07-12T05:54:31;7.03;;;5.67;;
24799;SDS011;12897;50.812;4.430;2022-07-12T05:56:58;10.48;;;6.00;;
24799;SDS011;12897;50.812;4.430;2022-07-12T05:59:26;8.33;;;6.28;;
24799;SDS011;12897;50.812;4.430;2022-07-12T06:01:55;10.38;;;6.35;;
24799;SDS011;12897;50.812;4.430;2022-07-12T06:07:12;7.97;;;5.92;;
24799;SDS011;12897;50.812;4.430;2022-07-12T06:09:39;14.05;;;6.22;;
24799;SDS011;12897;50.812;4.430;2022-07-12T06:12:07;11.85;;;6.30;;
24799;SDS011;12897;50.812;4.430;2022-07-12T06:14:35;12.18;;;7.35;;
24799;SDS011;12897;50.812;4.430;2022-07-12T06:17:02;11.12;;;7.45;;
24799;SDS011;12897;50.812;4.430;2022-07-12T06:19:30;14.58;;;8.20;;
24799;SDS011;12897;50.812;4.430;2022-07-12T06:21:59;12.93;;;8.20;;
24799;SDS011;12897;50.812;4.430;2022-07-12T06:24:26;9.50;;;8.60;;
24799;SDS011;12897;50.812;4.430;2022-07-12T06:26:55;9.58;;;8.28;;
24799;SDS011;12897;50.812;4.430;2022-07-12T06:29:23;10.82;;;9.00;;
24799;SDS011;12897;50.812;4.430;2022-07-12T06:31:53;12.63;;;8.45;;
24799;SDS011;12897;50.812;4.430;2022-07-12T06:34:21;14.25;;;8.90;;
24799;SDS011;12897;50.812;4.430;2022-07-12T06:36:49;11.68;;;8.75;;
24799;SDS011;12897;50.812;4.430;2022-07-12T06:39:17;14.30;;;8.77;;
24799;SDS011;12897;50.812;4.430;2022-07-12T06:41:45;9.28;;;7.83;;
24799;SDS011;12897;50.812;4.430;2022-07-12T06:44:13;14.40;;;8.90;;
24799;SDS011;12897;50.812;4.430;2022-07-12T06:46:41;9.90;;;8.58;;
24799;SDS011;12897;50.812;4.430;2022-07-12T06:49:09;10.70;;;8.08;;
24799;SDS011;12897;50.812;4.430;2022-07-12T06:51:37;15.05;;;8.58;;
24799;SDS011;12897;50.812;4.430;2022-07-12T06:54:05;11.55;;;7.35;;
24799;SDS011;12897;50.812;4.430;2022-07-12T06:56:32;8.03;;;7.15;;
24799;SDS011;12897;50.812;4.430;2022-07-12T06:59:00;8.08;;;7.12;;
24799;SDS011;12897;50.812;4.430;2022-07-12T07:01:27;9.75;;;7.85;;
24799;SDS011;12897;50.812;4.430;2022-07-12T07:03:55;10.48;;;7.15;;
24799;SDS011;12897;50.812;4.430;2022-07-12T07:06:23;11.75;;;7.65;;
24799;SDS011;12897;50.812;4.430;2022-07-12T07:08:50;11.00;;;7.87;;
24799;SDS011;12897;50.812;4.430;2022-07-12T07:11:18;8.45;;;7.08;;
24799;SDS011;12897;50.812;4.430;2022-07-12T07:13:45;9.30;;;7.40;;
24799;SDS011;12897;50.812;4.430;2022-07-12T07:16:14;10.35;;;8.05;;
24799;SDS011;12897;50.812;4.430;2022-07-12T07:18:42;8.78;;;6.72;;
24799;SDS011;12897;50.812;4.430;2022-07-12T07:21:09;14.45;;;7.80;;
24799;SDS011;12897;50.812;4.430;2022-07-12T07:23:37;9.35;;;7.58;;
24799;SDS011;12897;50.812;4.430;2022-07-12T07:26:04;10.30;;;9.23;;
24799;SDS011;12897;50.812;4.430;2022-07-12T07:28:32;10.60;;;7.55;;
24799;SDS011;12897;50.812;4.430;2022-07-12T07:31:01;10.10;;;7.65;;
24799;SDS011;12897;50.812;4.430;2022-07-12T07:33:29;11.80;;;7.33;;
24799;SDS011;12897;50.812;4.430;2022-07-12T07:35:56;8.68;;;7.03;;
24799;SDS011;12897;50.812;4.430;2022-07-12T07:38:24;9.75;;;6.65;;
24799;SDS011;12897;50.812;4.430;2022-07-12T07:40:52;9.75;;;7.25;;
24799;SDS011;12897;50.812;4.430;2022-07-12T07:43:19;7.42;;;6.62;;
24799;SDS011;12897;50.812;4.430;2022-07-12T07:45:47;9.15;;;7.25;;
24799;SDS011;12897;50.812;4.430;2022-07-12T07:48:15;7.95;;;7.15;;
24799;SDS011;12897;50.812;4.430;2022-07-12T07:50:43;11.08;;;7.28;;
24799;SDS011;12897;50.812;4.430;2022-07-12T07:53:10;9.13;;;6.67;;
24799;SDS011;12897;50.812;4.430;2022-07-12T07:55:39;8.43;;;7.53;;
24799;SDS011;12897;50.812;4.430;2022-07-12T07:58:07;7.58;;;6.87;;
24799;SDS011;12897;50.812;4.430;2022-07-12T08:00:34;8.60;;;7.47;;
24799;SDS011;12897;50.812;4.430;2022-07-12T08:03:02;9.60;;;7.55;;
24799;SDS011;12897;50.812;4.430;2022-07-12T08:05:30;10.23;;;7.40;;
24799;SDS011;12897;50.812;4.430;2022-07-12T08:07:57;9.98;;;7.37;;
24799;SDS011;12897;50.812;4.430;2022-07-12T08:10:25;11.25;;;7.55;;
24799;SDS011;12897;50.812;4.430;2022-07-12T08:12:53;9.18;;;7.25;;
24799;SDS011;12897;50.812;4.430;2022-07-12T08:15:20;10.35;;;7.42;;
24799;SDS011;12897;50.812;4.430;2022-07-12T08:17:48;11.78;;;7.72;;
24799;SDS011;12897;50.812;4.430;2022-07-12T08:20:16;9.98;;;7.12;;
24799;SDS011;12897;50.812;4.430;2022-07-12T08:22:43;8.35;;;7.42;;
24799;SDS011;12897;50.812;4.430;2022-07-12T08:25:13;10.87;;;7.90;;
24799;SDS011;12897;50.812;4.430;2022-07-12T08:27:41;11.55;;;6.72;;
24799;SDS011;12897;50.812;4.430;2022-07-12T08:30:08;10.25;;;7.15;;
24799;SDS011;12897;50.812;4.430;2022-07-12T08:32:44;9.80;;;7.53;;
24799;SDS011;12897;50.812;4.430;2022-07-12T08:35:13;13.95;;;7.47;;
24799;SDS011;12897;50.812;4.430;2022-07-12T08:37:41;8.38;;;6.78;;
24799;SDS011;12897;50.812;4.430;2022-07-12T08:40:09;12.53;;;7.78;;
24799;SDS011;12897;50.812;4.430;2022-07-12T08:42:40;10.30;;;7.60;;
24799;SDS011;12897;50.812;4.430;2022-07-12T08:45:08;7.80;;;7.00;;
24799;SDS011;12897;50.812;4.430;2022-07-12T08:47:36;9.38;;;7.22;;
24799;SDS011;12897;50.812;4.430;2022-07-12T08:50:15;11.40;;;7.33;;
24799;SDS011;12897;50.812;4.430;2022-07-12T08:52:46;9.00;;;7.33;;
24799;SDS011;12897;50.812;4.430;2022-07-12T08:55:20;7.67;;;6.97;;
24799;SDS011;12897;50.812;4.430;2022-07-12T08:57:45;7.65;;;6.85;;
24799;SDS011;12897;50.812;4.430;2022-07-12T09:00:14;7.47;;;6.67;;
24799;SDS011;12897;50.812;4.430;2022-07-12T09:05:22;9.33;;;6.37;;
24799;SDS011;12897;50.812;4.430;2022-07-12T09:07:51;8.93;;;6.25;;
24799;SDS011;12897;50.812;4.430;2022-07-12T09:10:31;10.55;;;6.40;;
24799;SDS011;12897;50.812;4.430;2022-07-12T09:12:59;11.85;;;6.55;;
24799;SDS011;12897;50.812;4.430;2022-07-12T09:15:27;12.47;;;6.03;;
24799;SDS011;12897;50.812;4.430;2022-07-12T09:17:56;9.78;;;6.65;;
24799;SDS011;12897;50.812;4.430;2022-07-12T09:20:29;12.85;;;6.20;;
24799;SDS011;12897;50.812;4.430;2022-07-12T09:22:59;9.15;;;5.85;;
24799;SDS011;12897;50.812;4.430;2022-07-12T09:25:28;9.88;;;6.08;;
24799;SDS011;12897;50.812;4.430;2022-07-12T09:27:58;8.80;;;6.10;;
24799;SDS011;12897;50.812;4.430;2022-07-12T09:30:28;6.92;;;5.60;;
24799;SDS011;12897;50.812;4.430;2022-07-12T09:33:00;8.33;;;6.05;;
24799;SDS011;12897;50.812;4.430;2022-07-12T09:38:50;6.40;;;5.80;;
24799;SDS011;12897;50.812;4.430;2022-07-12T09:41:26;8.28;;;6.00;;
24799;SDS011;12897;50.812;4.430;2022-07-12T09:43:54;12.53;;;5.62;;
24799;SDS011;12897;50.812;4.430;2022-07-12T09:46:23;9.00;;;6.07;;
24799;SDS011;12897;50.812;4.430;2022-07-12T09:48:51;7.15;;;6.33;;
24799;SDS011;12897;50.812;4.430;2022-07-12T09:51:26;7.87;;;5.50;;
24799;SDS011;12897;50.812;4.430;2022-07-12T09:53:57;6.78;;;5.17;;
24799;SDS011;12897;50.812;4.430;2022-07-12T09:56:27;7.92;;;5.45;;
24799;SDS011;12897;50.812;4.430;2022-07-12T09:58:56;7.25;;;5.67;;
24799;SDS011;12897;50.812;4.430;2022-07-12T10:01:26;8.33;;;5.10;;
24799;SDS011;12897;50.812;4.430;2022-07-12T10:04:00;9.18;;;6.78;;
24799;SDS011;12897;50.812;4.430;2022-07-12T10:06:27;7.28;;;4.30;;
24799;SDS011;12897;50.812;4.430;2022-07-12T10:08:56;6.37;;;5.50;;
24799;SDS011;12897;50.812;4.430;2022-07-12T10:11:24;9.90;;;5.87;;
24799;SDS011;12897;50.812;4.430;2022-07-12T10:13:53;5.78;;;5.15;;
24799;SDS011;12897;50.812;4.430;2022-07-12T10:16:24;6.97;;;4.83;;
24799;SDS011;12897;50.812;4.430;2022-07-12T10:21:50;8.58;;;5.72;;
24799;SDS011;12897;50.812;4.430;2022-07-12T10:24:44;11.22;;;5.90;;
24799;SDS011;12897;50.812;4.430;2022-07-12T10:29:46;8.83;;;5.17;;
24799;SDS011;12897;50.812;4.430;2022-07-12T10:35:00;9.05;;;5.58;;
24799;SDS011;12897;50.812;4.430;2022-07-12T10:37:26;5.45;;;4.72;;
24799;SDS011;12897;50.812;4.430;2022-07-12T10:40:29;6.70;;;4.97;;
24799;SDS011;12897;50.812;4.430;2022-07-12T10:45:35;8.28;;;5.28;;
24799;SDS011;12897;50.812;4.430;2022-07-12T10:48:07;6.45;;;5.25;;
24799;SDS011;12897;50.812;4.430;2022-07-12T10:53:30;5.50;;;4.80;;
24799;SDS011;12897;50.812;4.430;2022-07-12T10:56:09;6.05;;;5.45;;
24799;SDS011;12897;50.812;4.430;2022-07-12T10:58:43;7.53;;;4.80;;
24799;SDS011;12897;50.812;4.430;2022-07-12T11:03:50;5.22;;;4.72;;
24799;SDS011;12897;50.812;4.430;2022-07-12T11:06:23;6.78;;;5.20;;
24799;SDS011;12897;50.812;4.430;2022-07-12T11:11:28;5.95;;;4.40;;
24799;SDS011;12897;50.812;4.430;2022-07-12T11:14:03;8.83;;;4.72;;
24799;SDS011;12897;50.812;4.430;2022-07-12T11:16:30;7.45;;;4.30;;
24799;SDS011;12897;50.812;4.430;2022-07-12T11:18:59;5.10;;;4.60;;
24799;SDS011;12897;50.812;4.430;2022-07-12T11:21:27;4.95;;;4.37;;
24799;SDS011;12897;50.812;4.430;2022-07-12T11:23:54;5.22;;;4.70;;
24799;SDS011;12897;50.812;4.430;2022-07-12T11:26:23;5.83;;;4.03;;
24799;SDS011;12897;50.812;4.430;2022-07-12T11:28:55;7.67;;;4.50;;
24799;SDS011;12897;50.812;4.430;2022-07-12T11:31:22;7.20;;;4.53;;
24799;SDS011;12897;50.812;4.430;2022-07-12T11:33:51;8.65;;;5.33;;
24799;SDS011;12897;50.812;4.430;2022-07-12T11:36:19;5.37;;;4.10;;
24799;SDS011;12897;50.812;4.430;2022-07-12T11:38:47;6.37;;;4.05;;
24799;SDS011;12897;50.812;4.430;2022-07-12T11:41:14;9.38;;;4.12;;
24799;SDS011;12897;50.812;4.430;2022-07-12T11:43:42;5.22;;;4.65;;
24799;SDS011;12897;50.812;4.430;2022-07-12T11:46:10;7.33;;;4.33;;
24799;SDS011;12897;50.812;4.430;2022-07-12T11:48:39;6.58;;;4.70;;
24799;SDS011;12897;50.812;4.430;2022-07-12T11:51:09;6.87;;;4.55;;
24799;SDS011;12897;50.812;4.430;2022-07-12T11:53:38;6.58;;;4.58;;
24799;SDS011;12897;50.812;4.430;2022-07-12T11:56:06;11.83;;;4.35;;
24799;SDS011;12897;50.812;4.430;2022-07-12T11:58:36;7.95;;;4.62;;
24799;SDS011;12897;50.812;4.430;2022-07-12T12:01:04;10.95;;;8.05;;
24799;SDS011;12897;50.812;4.430;2022-07-12T12:03:41;6.67;;;4.80;;
24799;SDS011;12897;50.812;4.430;2022-07-12T12:06:10;6.37;;;4.17;;
24799;SDS011;12897;50.812;4.430;2022-07-12T12:08:37;5.37;;;3.77;;
24799;SDS011;12897;50.812;4.430;2022-07-12T12:11:05;4.97;;;3.70;;
24799;SDS011;12897;50.812;4.430;2022-07-12T12:13:33;7.25;;;4.40;;
24799;SDS011;12897;50.812;4.430;2022-07-12T12:16:01;7.25;;;4.50;;
24799;SDS011;12897;50.812;4.430;2022-07-12T12:18:32;8.55;;;4.37;;
24799;SDS011;12897;50.812;4.430;2022-07-12T12:21:03;8.73;;;4.20;;
24799;SDS011;12897;50.812;4.430;2022-07-12T12:23:35;6.45;;;3.70;;
24799;SDS011;12897;50.812;4.430;2022-07-12T12:26:20;3.65;;;2.92;;
24799;SDS011;12897;50.812;4.430;2022-07-12T12:28:52;4.37;;;3.30;;
24799;SDS011;12897;50.812;4.430;2022-07-12T12:31:21;8.43;;;4.45;;
24799;SDS011;12897;50.812;4.430;2022-07-12T12:36:37;5.87;;;3.95;;
24799;SDS011;12897;50.812;4.430;2022-07-12T12:39:06;6.60;;;4.53;;
24799;SDS011;12897;50.812;4.430;2022-07-12T12:41:39;10.43;;;4.87;;
24799;SDS011;12897;50.812;4.430;2022-07-12T12:44:10;6.15;;;4.08;;
24799;SDS011;12897;50.812;4.430;2022-07-12T12:52:15;8.68;;;4.10;;
24799;SDS011;12897;50.812;4.430;2022-07-12T12:54:43;8.25;;;4.00;;
24799;SDS011;12897;50.812;4.430;2022-07-12T12:57:11;12.40;;;4.58;;
24799;SDS011;12897;50.812;4.430;2022-07-12T12:59:39;12.25;;;4.20;;
24799;SDS011;12897;50.812;4.430;2022-07-12T13:02:07;7.67;;;5.53;;
24799;SDS011;12897;50.812;4.430;2022-07-12T13:04:36;7.87;;;4.33;;
24799;SDS011;12897;50.812;4.430;2022-07-12T13:07:04;6.75;;;3.92;;
24799;SDS011;12897;50.812;4.430;2022-07-12T13:09:32;11.25;;;4.10;;
24799;SDS011;12897;50.812;4.430;2022-07-12T13:12:00;6.25;;;4.17;;
24799;SDS011;12897;50.812;4.430;2022-07-12T13:14:28;6.70;;;3.65;;
24799;SDS011;12897;50.812;4.430;2022-07-12T13:16:56;11.28;;;4.15;;
24799;SDS011;12897;50.812;4.430;2022-07-12T13:19:23;4.28;;;3.80;;
24799;SDS011;12897;50.812;4.430;2022-07-12T13:21:51;8.35;;;4.00;;
24799;SDS011;12897;50.812;4.430;2022-07-12T13:24:18;10.13;;;4.03;;
24799;SDS011;12897;50.812;4.430;2022-07-12T13:26:46;5.92;;;4.10;;
24799;SDS011;12897;50.812;4.430;2022-07-12T13:29:13;7.28;;;3.98;;
24799;SDS011;12897;50.812;4.430;2022-07-12T13:31:41;6.17;;;4.25;;
24799;SDS011;12897;50.812;4.430;2022-07-12T13:34:09;10.50;;;4.08;;
24799;SDS011;12897;50.812;4.430;2022-07-12T13:36:36;5.78;;;4.10;;
24799;SDS011;12897;50.812;4.430;2022-07-12T13:39:04;8.25;;;4.00;;
24799;SDS011;12897;50.812;4.430;2022-07-12T13:41:49;10.05;;;4.00;;
24799;SDS011;12897;50.812;4.430;2022-07-12T13:44:17;7.00;;;4.03;;
24799;SDS011;12897;50.812;4.430;2022-07-12T13:46:45;6.70;;;3.60;;
24799;SDS011;12897;50.812;4.430;2022-07-12T13:49:12;8.98;;;4.40;;
24799;SDS011;12897;50.812;4.430;2022-07-12T13:51:40;7.10;;;4.40;;
24799;SDS011;12897;50.812;4.430;2022-07-12T13:54:09;4.00;;;3.60;;
24799;SDS011;12897;50.812;4.430;2022-07-12T13:56:36;7.17;;;4.03;;
24799;SDS011;12897;50.812;4.430;2022-07-12T13:59:04;5.50;;;4.10;;
24799;SDS011;12897;50.812;4.430;2022-07-12T14:01:32;5.60;;;3.98;;
24799;SDS011;12897;50.812;4.430;2022-07-12T14:03:59;11.95;;;4.25;;
24799;SDS011;12897;50.812;4.430;2022-07-12T14:06:28;8.25;;;4.10;;
24799;SDS011;12897;50.812;4.430;2022-07-12T14:08:56;11.68;;;4.22;;
24799;SDS011;12897;50.812;4.430;2022-07-12T14:11:24;8.83;;;4.20;;
24799;SDS011;12897;50.812;4.430;2022-07-12T14:13:51;8.80;;;4.10;;
24799;SDS011;12897;50.812;4.430;2022-07-12T14:16:19;7.33;;;4.03;;
24799;SDS011;12897;50.812;4.430;2022-07-12T14:18:47;6.75;;;3.70;;
24799;SDS011;12897;50.812;4.430;2022-07-12T14:21:14;9.58;;;3.40;;
24799;SDS011;12897;50.812;4.430;2022-07-12T14:23:42;4.47;;;3.58;;
24799;SDS011;12897;50.812;4.430;2022-07-12T14:26:10;8.33;;;3.45;;
24799;SDS011;12897;50.812;4.430;2022-07-12T14:28:39;8.45;;;3.95;;
24799;SDS011;12897;50.812;4.430;2022-07-12T14:31:06;6.00;;;3.72;;
24799;SDS011;12897;50.812;4.430;2022-07-12T14:33:35;5.50;;;3.55;;
24799;SDS011;12897;50.812;4.430;2022-07-12T14:36:03;7.03;;;3.60;;
24799;SDS011;12897;50.812;4.430;2022-07-12T14:38:30;6.47;;;3.58;;
24799;SDS011;12897;50.812;4.430;2022-07-12T14:40:58;4.85;;;3.30;;
24799;SDS011;12897;50.812;4.430;2022-07-12T14:43:25;8.98;;;3.90;;
24799;SDS011;12897;50.812;4.430;2022-07-12T14:45:53;9.08;;;3.27;;
24799;SDS011;12897;50.812;4.430;2022-07-12T14:48:21;6.25;;;3.37;;
24799;SDS011;12897;50.812;4.430;2022-07-12T14:50:49;6.72;;;3.20;;
24799;SDS011;12897;50.812;4.430;2022-07-12T14:53:17;8.70;;;3.27;;
24799;SDS011;12897;50.812;4.430;2022-07-12T14:55:44;7.45;;;2.85;;
24799;SDS011;12897;50.812;4.430;2022-07-12T14:58:12;9.23;;;3.10;;
24799;SDS011;12897;50.812;4.430;2022-07-12T15:00:39;6.42;;;3.30;;
24799;SDS011;12897;50.812;4.430;2022-07-12T15:03:07;8.03;;;3.30;;
24799;SDS011;12897;50.812;4.430;2022-07-12T15:05:36;5.87;;;3.20;;
24799;SDS011;12897;50.812;4.430;2022-07-12T15:08:06;8.53;;;2.87;;
24799;SDS011;12897;50.812;4.430;2022-07-12T15:10:34;3.85;;;2.90;;
24799;SDS011;12897;50.812;4.430;2022-07-12T15:13:03;3.52;;;2.58;;
24799;SDS011;12897;50.812;4.430;2022-07-12T15:15:32;7.58;;;3.00;;
24799;SDS011;12897;50.812;4.430;2022-07-12T15:18:00;5.47;;;3.67;;
24799;SDS011;12897;50.812;4.430;2022-07-12T15:20:27;10.23;;;3.58;;
24799;SDS011;12897;50.812;4.430;2022-07-12T15:22:55;3.60;;;2.67;;
24799;SDS011;12897;50.812;4.430;2022-07-12T15:25:23;5.33;;;2.80;;
24799;SDS011;12897;50.812;4.430;2022-07-12T15:27:51;4.72;;;3.10;;
24799;SDS011;12897;50.812;4.430;2022-07-12T15:30:18;8.15;;;2.87;;
24799;SDS011;12897;50.812;4.430;2022-07-12T15:32:46;7.33;;;3.55;;
24799;SDS011;12897;50.812;4.430;2022-07-12T15:35:14;5.90;;;2.70;;
24799;SDS011;12897;50.812;4.430;2022-07-12T15:37:42;4.03;;;2.72;;
24799;SDS011;12897;50.812;4.430;2022-07-12T15:40:09;4.25;;;2.80;;
24799;SDS011;12897;50.812;4.430;2022-07-12T15:42:37;4.50;;;3.25;;